Heerhugowaard, Netherlands
Current Conditions -  °F | °C
As of 12:55 PM on Tuesday 21 Oct 2014 (Local Time) from EHKD Reporting Station
Overcast Overcast  
Wind Chill: 61°   Ceiling: 2000
Heat Index: 61°   Visibility: 6mi
Dew Point: 55°   Wind: 26mph
Humidity: 82%   Direction: 230°SW
Pressure: 29.38"   Gusts: 38mph
Location:  52.67°N, 4.85°E
Report Text: EHKD 211055Z AUTO 23023G33KT 9999 FEW015TCU SCT016 OVC020 16/13 Q0995 WHT 22025G35KT 9999 FEW010 SCT015 BKN020 TEMPO 27025G45KT 4000 SHRA SCT009 BKN014CB BKN016
Loading
Personal Weather Stations






























Interactive Weather Map
Tropical Storm Tracking
New forecast layout! Learn more

10-Day Weather Forecast

Advertisements
Track Severe Weather on mobile